createdAt,value
2022-12-08T00:01:21.088Z,9.93
2022-12-08T00:03:53.104Z,10.13
2022-12-08T00:06:50.605Z,11.00
2022-12-08T00:09:22.870Z,11.55
2022-12-08T00:12:00.780Z,9.73
2022-12-08T00:14:39.113Z,10.95
2022-12-08T00:17:07.819Z,10.80
2022-12-08T00:19:34.748Z,10.77
2022-12-08T00:22:03.807Z,11.82
2022-12-08T00:24:32.999Z,10.52
2022-12-08T00:27:06.078Z,10.35
2022-12-08T00:29:33.018Z,10.43
2022-12-08T00:31:59.769Z,9.95
2022-12-08T00:34:26.574Z,11.20
2022-12-08T00:36:55.470Z,10.38
2022-12-08T00:39:22.466Z,10.90
2022-12-08T00:42:10.039Z,9.20
2022-12-08T00:44:36.740Z,10.48
2022-12-08T00:47:06.792Z,10.90
2022-12-08T00:49:38.499Z,10.68
2022-12-08T00:52:07.942Z,8.40
2022-12-08T00:57:08.439Z,9.77
2022-12-08T00:59:35.238Z,9.63
2022-12-08T01:02:04.708Z,10.02
2022-12-08T01:04:36.209Z,9.07
2022-12-08T01:07:03.089Z,8.63
2022-12-08T01:09:32.706Z,9.02
2022-12-08T01:12:01.757Z,9.45
2022-12-08T01:14:28.498Z,8.95
2022-12-08T01:16:55.231Z,9.73
2022-12-08T01:19:24.488Z,9.45
2022-12-08T01:21:51.295Z,8.18
2022-12-08T01:24:20.680Z,8.38
2022-12-08T01:29:23.309Z,8.98
2022-12-08T01:31:49.967Z,9.13
2022-12-08T01:34:16.787Z,9.15
2022-12-08T01:36:48.358Z,8.50
2022-12-08T01:39:20.199Z,8.68
2022-12-08T01:41:49.598Z,10.02
2022-12-08T01:46:49.056Z,9.15
2022-12-08T01:49:32.456Z,8.98
2022-12-08T01:52:11.372Z,9.05
2022-12-08T01:54:46.526Z,9.30
2022-12-08T01:57:21.614Z,9.55
2022-12-08T02:00:03.876Z,10.10
2022-12-08T02:02:38.786Z,9.90
2022-12-08T02:05:07.082Z,10.02
2022-12-08T02:07:35.509Z,9.98
2022-12-08T02:10:06.694Z,9.40
2022-12-08T02:12:36.282Z,8.77
2022-12-08T02:15:05.847Z,9.75
2022-12-08T02:17:39.213Z,9.85
2022-12-08T02:20:36.739Z,8.82
2022-12-08T02:23:21.126Z,9.95
2022-12-08T02:26:00.388Z,10.00
2022-12-08T02:28:54.774Z,9.98
2022-12-08T02:31:58.485Z,11.00
2022-12-08T02:34:49.674Z,9.57
2022-12-08T02:37:26.715Z,9.02
2022-12-08T02:40:14.386Z,9.75
2022-12-08T02:43:06.607Z,9.20
2022-12-08T02:45:38.694Z,10.68
2022-12-08T02:48:09.535Z,11.82
2022-12-08T02:50:36.542Z,10.25
2022-12-08T02:55:46.685Z,10.15
2022-12-08T02:58:36.872Z,12.02
2022-12-08T03:01:51.543Z,11.10
2022-12-08T03:04:26.034Z,10.65
2022-12-08T03:07:04.673Z,11.88
2022-12-08T03:09:41.787Z,13.60
2022-12-08T03:12:23.450Z,13.85
2022-12-08T03:14:57.763Z,12.20
2022-12-08T03:17:30.247Z,12.00
2022-12-08T03:19:59.723Z,13.98
2022-12-08T03:24:57.167Z,11.05
2022-12-08T03:27:32.738Z,11.38
2022-12-08T03:32:51.267Z,12.32
2022-12-08T03:35:23.796Z,11.80
2022-12-08T03:37:50.614Z,15.35
2022-12-08T03:40:22.487Z,22.48
2022-12-08T03:42:49.279Z,20.48
2022-12-08T03:45:18.630Z,18.92
2022-12-08T03:50:15.069Z,17.48
2022-12-08T03:52:46.573Z,17.40
2022-12-08T03:55:15.852Z,14.27
2022-12-08T03:57:44.982Z,16.42
2022-12-08T04:00:15.598Z,15.70
2022-12-08T04:02:43.533Z,13.40
2022-12-08T04:05:10.810Z,12.73
2022-12-08T04:07:40.272Z,12.68
2022-12-08T04:10:11.890Z,11.48
2022-12-08T04:12:38.645Z,11.52
2022-12-08T04:15:10.913Z,11.48
2022-12-08T04:17:42.387Z,11.40
2022-12-08T04:20:09.237Z,10.35
2022-12-08T04:22:40.995Z,11.40
2022-12-08T04:25:08.301Z,11.98
2022-12-08T04:27:34.835Z,12.07
2022-12-08T04:30:01.724Z,12.98
2022-12-08T04:32:28.756Z,12.02
2022-12-08T04:34:58.637Z,12.73
2022-12-08T04:37:25.239Z,12.23
2022-12-08T04:39:52.030Z,12.18
2022-12-08T04:42:21.127Z,12.25
2022-12-08T04:44:50.308Z,16.20
2022-12-08T04:47:20.991Z,19.13
2022-12-08T04:49:50.656Z,21.17
2022-12-08T04:52:19.611Z,20.60
2022-12-08T04:54:46.297Z,14.80
2022-12-08T04:57:16.514Z,14.38
2022-12-08T04:59:45.895Z,13.55
2022-12-08T05:04:42.957Z,12.73
2022-12-08T05:07:09.740Z,11.93
2022-12-08T05:09:36.433Z,11.65
2022-12-08T05:12:05.778Z,12.20
2022-12-08T05:17:06.209Z,11.20
2022-12-08T05:19:40.628Z,10.95
2022-12-08T05:22:09.747Z,11.07
2022-12-08T05:24:36.810Z,11.30
2022-12-08T05:27:06.233Z,11.00
2022-12-08T05:29:35.434Z,11.13
2022-12-08T05:32:04.491Z,10.23
2022-12-08T05:34:31.273Z,10.85
2022-12-08T05:36:57.923Z,11.10
2022-12-08T05:39:26.747Z,11.02
2022-12-08T05:41:56.134Z,11.38
2022-12-08T05:46:49.652Z,10.40
2022-12-08T05:49:18.986Z,9.38
2022-12-08T05:51:45.929Z,10.35
2022-12-08T05:54:12.673Z,11.23
2022-12-08T05:56:41.538Z,12.45
2022-12-08T05:59:10.966Z,12.38
2022-12-08T06:04:11.875Z,10.95
2022-12-08T06:06:41.302Z,14.45
2022-12-08T06:11:40.600Z,13.80
2022-12-08T06:14:12.380Z,13.40
2022-12-08T06:16:41.385Z,14.18
2022-12-08T06:19:08.315Z,14.55
2022-12-08T06:21:37.168Z,14.00
2022-12-08T06:24:03.818Z,14.63
2022-12-08T06:26:32.724Z,13.52
2022-12-08T06:29:00.986Z,13.32
2022-12-08T06:31:30.518Z,13.23
2022-12-08T06:33:57.497Z,13.48
2022-12-08T06:36:29.312Z,12.52
2022-12-08T06:39:00.207Z,12.43
2022-12-08T06:41:26.779Z,12.35
2022-12-08T06:43:57.044Z,12.98
2022-12-08T06:46:25.946Z,12.50
2022-12-08T06:48:54.963Z,14.07
2022-12-08T06:51:24.883Z,15.10
2022-12-08T06:53:51.899Z,15.85
2022-12-08T06:56:20.308Z,15.68
2022-12-08T06:58:52.092Z,16.60
2022-12-08T07:01:19.603Z,15.48
2022-12-08T07:03:48.852Z,16.63
2022-12-08T07:06:23.293Z,16.60
2022-12-08T07:08:52.185Z,16.05
2022-12-08T07:11:22.063Z,16.30
2022-12-08T07:13:49.443Z,15.40
2022-12-08T07:16:16.322Z,13.63
2022-12-08T07:18:43.983Z,15.13
2022-12-08T07:21:15.068Z,15.70
2022-12-08T07:23:54.299Z,14.75
2022-12-08T07:26:24.185Z,15.57
2022-12-08T07:28:53.119Z,15.43
2022-12-08T07:31:25.179Z,16.25
2022-12-08T07:33:55.307Z,15.50
2022-12-08T07:36:22.291Z,14.10
2022-12-08T07:38:53.578Z,16.00
2022-12-08T07:41:27.984Z,14.73
2022-12-08T07:43:57.629Z,15.05
2022-12-08T07:46:28.313Z,16.50
2022-12-08T07:48:57.140Z,15.85
2022-12-08T07:51:26.102Z,16.88
2022-12-08T07:53:55.638Z,17.70
2022-12-08T07:56:25.686Z,18.25
2022-12-08T07:58:52.384Z,18.27
2022-12-08T08:01:23.782Z,16.90
2022-12-08T08:03:53.102Z,17.27
2022-12-08T08:06:24.609Z,17.15
2022-12-08T08:08:54.013Z,24.98
2022-12-08T08:11:21.801Z,17.63
2022-12-08T08:13:51.930Z,18.25
2022-12-08T08:16:22.533Z,18.52
2022-12-08T08:18:51.030Z,17.38
2022-12-08T08:24:06.154Z,18.50
2022-12-08T08:26:35.011Z,18.25
2022-12-08T08:29:01.699Z,19.23
2022-12-08T08:31:28.515Z,18.40
2022-12-08T08:33:56.643Z,17.98
2022-12-08T08:36:27.926Z,18.33
2022-12-08T08:38:54.667Z,18.30
2022-12-08T08:41:23.578Z,17.65
2022-12-08T08:43:52.571Z,18.30
2022-12-08T08:46:19.167Z,17.83
2022-12-08T08:48:48.080Z,18.95
2022-12-08T08:51:15.327Z,17.52
2022-12-08T08:53:44.454Z,17.67
2022-12-08T08:56:13.227Z,16.73
2022-12-08T08:58:40.721Z,16.55
2022-12-08T09:01:14.607Z,15.88
2022-12-08T09:03:43.583Z,15.32
2022-12-08T09:06:12.622Z,15.73
2022-12-08T09:08:45.249Z,16.73
2022-12-08T09:11:19.134Z,14.73
2022-12-08T09:13:52.203Z,15.50
2022-12-08T09:16:22.346Z,15.55
2022-12-08T09:18:52.062Z,16.55
2022-12-08T09:21:25.972Z,14.95
2022-12-08T09:23:57.665Z,14.90
2022-12-08T09:26:30.076Z,14.63
2022-12-08T09:28:59.956Z,12.55
2022-12-08T09:31:28.917Z,13.93
2022-12-08T09:34:00.535Z,13.02
2022-12-08T09:36:27.416Z,14.00
2022-12-08T09:38:56.204Z,13.48
2022-12-08T09:41:36.520Z,13.75
2022-12-08T09:44:33.590Z,13.55
2022-12-08T09:47:11.550Z,13.95
2022-12-08T09:49:42.491Z,12.80
2022-12-08T09:52:34.076Z,14.07
2022-12-08T09:55:07.020Z,12.50
2022-12-08T09:57:33.687Z,13.23
2022-12-08T10:00:06.707Z,12.88
2022-12-08T10:02:36.204Z,12.00
2022-12-08T10:05:03.359Z,11.88
2022-12-08T10:07:46.815Z,13.68
2022-12-08T10:10:31.579Z,11.75
2022-12-08T10:13:13.319Z,11.95
2022-12-08T10:15:43.084Z,12.98
2022-12-08T10:18:31.237Z,12.15
2022-12-08T10:21:20.661Z,11.30
2022-12-08T10:24:01.287Z,11.18
2022-12-08T10:26:28.499Z,11.45
2022-12-08T10:29:01.278Z,11.63
2022-12-08T10:31:31.457Z,11.68
2022-12-08T10:34:15.911Z,10.82
2022-12-08T10:37:00.941Z,11.20
2022-12-08T10:39:44.042Z,12.50
2022-12-08T10:42:16.116Z,11.85
2022-12-08T10:44:58.064Z,10.93
2022-12-08T10:47:27.054Z,10.57
2022-12-08T10:50:22.967Z,9.75
2022-12-08T10:53:02.853Z,10.48
2022-12-08T10:55:47.085Z,9.63
2022-12-08T10:58:35.953Z,9.77
2022-12-08T11:01:24.307Z,9.52
2022-12-08T11:03:56.765Z,9.80
2022-12-08T11:06:32.198Z,9.15
2022-12-08T11:11:44.333Z,8.20
2022-12-08T11:14:23.095Z,7.55
2022-12-08T11:16:51.799Z,7.53
2022-12-08T11:19:22.275Z,8.13
2022-12-08T11:21:48.974Z,8.15
2022-12-08T11:24:15.579Z,8.93
2022-12-08T11:26:52.958Z,9.30
2022-12-08T11:29:20.716Z,8.55
2022-12-08T11:31:59.759Z,11.07
2022-12-08T11:34:39.256Z,9.77
2022-12-08T11:37:28.644Z,10.90
2022-12-08T11:40:08.527Z,9.43
2022-12-08T11:42:46.362Z,9.35
2022-12-08T11:45:21.132Z,10.02
2022-12-08T11:47:56.088Z,8.45
2022-12-08T11:50:28.065Z,9.20
2022-12-08T11:52:57.066Z,9.82
2022-12-08T11:55:42.719Z,8.30
2022-12-08T11:58:24.354Z,9.10
2022-12-08T12:00:55.751Z,8.05
2022-12-08T12:03:33.037Z,8.77
2022-12-08T12:06:46.593Z,9.98
2022-12-08T12:09:17.359Z,8.48
2022-12-08T12:12:16.910Z,8.20
2022-12-08T12:15:22.146Z,8.52
2022-12-08T12:21:35.089Z,8.30
2022-12-08T12:24:23.926Z,7.40
2022-12-08T12:34:22.188Z,7.68
2022-12-08T12:36:57.879Z,9.02
2022-12-08T12:43:11.098Z,9.90
2022-12-08T12:45:45.157Z,8.90
2022-12-08T12:48:24.303Z,8.48
2022-12-08T12:50:57.262Z,8.70
2022-12-08T12:57:13.083Z,9.38
2022-12-08T12:59:55.925Z,9.23
2022-12-08T13:03:13.342Z,9.48
2022-12-08T13:05:58.023Z,8.25
2022-12-08T13:08:26.909Z,8.88
2022-12-08T13:11:07.092Z,8.75
2022-12-08T13:13:33.821Z,10.30
2022-12-08T13:16:17.344Z,8.45
2022-12-08T13:23:32.983Z,8.05
2022-12-08T13:26:29.970Z,8.77
2022-12-08T13:29:00.090Z,7.57
2022-12-08T13:31:48.322Z,9.15
2022-12-08T13:34:45.715Z,7.93
2022-12-08T13:37:12.207Z,7.07
2022-12-08T13:39:50.203Z,7.30
2022-12-08T13:42:27.787Z,7.47
2022-12-08T13:57:06.749Z,11.35
2022-12-08T13:59:48.359Z,11.30
2022-12-08T14:02:33.139Z,13.07
2022-12-08T14:07:52.417Z,13.45
2022-12-08T14:10:32.265Z,14.02
2022-12-08T14:13:13.870Z,12.32
2022-12-08T14:15:45.472Z,12.50
2022-12-08T14:18:31.814Z,12.95
2022-12-08T14:21:21.130Z,11.50
2022-12-08T14:23:48.228Z,12.68
2022-12-08T14:26:14.977Z,11.93
2022-12-08T14:32:38.673Z,10.57
2022-12-08T14:35:08.426Z,9.48
2022-12-08T14:37:45.630Z,10.77
2022-12-08T14:40:30.617Z,9.60
2022-12-08T14:43:13.171Z,10.00
2022-12-08T14:45:42.748Z,10.10
2022-12-08T14:48:32.006Z,11.15
2022-12-08T14:51:19.839Z,12.23
2022-12-08T14:56:28.912Z,11.73
2022-12-08T14:59:23.029Z,12.18
2022-12-08T15:09:36.761Z,12.85
2022-12-08T15:15:58.340Z,12.23
2022-12-08T15:19:08.797Z,12.55
2022-12-08T15:21:40.681Z,13.68
2022-12-08T15:24:14.815Z,13.82
2022-12-08T15:26:50.497Z,13.27
2022-12-08T15:29:28.848Z,12.02
2022-12-08T15:32:05.552Z,13.27
2022-12-08T15:34:37.252Z,13.30
2022-12-08T15:37:05.104Z,13.52
2022-12-08T15:39:40.107Z,11.73
2022-12-08T15:42:19.662Z,12.05
2022-12-08T15:44:59.046Z,13.43
2022-12-08T15:47:34.027Z,13.65
2022-12-08T15:56:50.556Z,11.25
2022-12-08T15:59:20.410Z,11.35
2022-12-08T16:01:55.611Z,12.73
2022-12-08T16:05:17.899Z,12.38
2022-12-08T16:12:06.672Z,11.82
2022-12-08T16:17:23.542Z,12.00
2022-12-08T16:19:52.429Z,13.43
2022-12-08T16:22:52.772Z,13.02
2022-12-08T16:25:19.503Z,13.95
2022-12-08T16:28:01.267Z,12.07
2022-12-08T16:30:33.011Z,11.48
2022-12-08T16:32:59.616Z,11.45
2022-12-08T16:35:29.435Z,9.45
2022-12-08T16:37:56.006Z,10.50
2022-12-08T16:40:25.795Z,9.70
2022-12-08T16:42:55.009Z,9.57
2022-12-08T16:45:21.648Z,9.35
2022-12-08T16:47:58.870Z,9.55
2022-12-08T16:50:27.376Z,9.15
2022-12-08T16:53:03.736Z,9.80
2022-12-08T16:55:30.689Z,10.20
2022-12-08T16:58:02.937Z,10.07
2022-12-08T17:07:32.011Z,11.95
2022-12-08T17:10:02.787Z,11.75
2022-12-08T17:12:41.950Z,11.85
2022-12-08T17:15:21.534Z,12.45
2022-12-08T17:18:00.432Z,10.65
2022-12-08T17:20:34.099Z,12.10
2022-12-08T17:23:25.752Z,11.88
2022-12-08T17:26:02.540Z,12.18
2022-12-08T17:28:58.778Z,12.70
2022-12-08T17:31:26.123Z,11.60
2022-12-08T17:34:04.641Z,12.30
2022-12-08T17:36:33.835Z,12.55
2022-12-08T17:39:12.006Z,10.45
2022-12-08T17:41:42.124Z,11.63
2022-12-08T17:44:23.759Z,11.63
2022-12-08T17:49:26.561Z,10.30
2022-12-08T17:52:04.143Z,11.07
2022-12-08T17:54:31.191Z,11.10
2022-12-08T17:57:01.959Z,11.10
2022-12-08T17:59:37.700Z,10.55
2022-12-08T18:02:11.480Z,11.02
2022-12-08T18:04:40.677Z,11.52
2022-12-08T18:10:48.066Z,11.57
2022-12-08T18:13:16.955Z,11.32
2022-12-08T18:15:43.622Z,11.45
2022-12-08T18:18:15.019Z,10.32
2022-12-08T18:20:44.920Z,11.07
2022-12-08T18:23:13.933Z,10.43
2022-12-08T18:25:40.631Z,12.13
2022-12-08T18:28:10.171Z,10.43
2022-12-08T18:30:40.545Z,10.82
2022-12-08T18:33:08.400Z,11.27
2022-12-08T18:35:35.364Z,11.25
2022-12-08T18:38:04.365Z,10.52
2022-12-08T18:47:30.255Z,10.93
2022-12-08T18:49:59.972Z,11.48
2022-12-08T18:52:31.956Z,11.95
2022-12-08T18:55:07.016Z,9.18
2022-12-08T18:57:36.376Z,10.50
2022-12-08T19:00:09.707Z,9.90
2022-12-08T19:02:38.581Z,10.48
2022-12-08T19:05:06.544Z,10.73
2022-12-08T19:07:42.619Z,11.05
2022-12-08T19:10:10.782Z,10.05
2022-12-08T19:12:40.103Z,9.70
2022-12-08T19:15:09.585Z,10.15
2022-12-08T19:17:38.518Z,10.02
2022-12-08T19:20:06.595Z,10.23
2022-12-08T19:22:33.465Z,9.95
2022-12-08T19:25:00.259Z,11.70
2022-12-08T19:27:26.906Z,9.95
2022-12-08T19:29:53.607Z,9.88
2022-12-08T19:32:25.061Z,8.70
2022-12-08T19:34:54.465Z,9.75
2022-12-08T19:37:23.531Z,8.93
2022-12-08T19:40:09.109Z,9.57
2022-12-08T19:42:54.621Z,8.88
2022-12-08T19:45:24.787Z,8.55
2022-12-08T19:47:53.694Z,8.77
2022-12-08T19:50:38.251Z,9.40
2022-12-08T19:53:09.952Z,9.88
2022-12-08T19:55:39.900Z,11.02
2022-12-08T19:58:07.475Z,9.65
2022-12-08T20:00:36.018Z,10.05
2022-12-08T20:03:08.660Z,9.63
2022-12-08T20:05:40.784Z,9.45
2022-12-08T20:08:07.851Z,9.50
2022-12-08T20:10:39.849Z,10.02
2022-12-08T20:13:28.738Z,9.25
2022-12-08T20:16:01.128Z,10.75
2022-12-08T20:18:30.309Z,10.65
2022-12-08T20:20:59.759Z,9.82
2022-12-08T20:23:29.008Z,10.48
2022-12-08T20:28:24.712Z,10.25
2022-12-08T20:30:56.323Z,10.85
2022-12-08T20:33:25.465Z,10.95
2022-12-08T20:36:03.658Z,10.32
2022-12-08T20:38:32.771Z,11.52
2022-12-08T20:41:02.367Z,10.80
2022-12-08T20:43:34.360Z,11.20
2022-12-08T20:46:08.284Z,11.65
2022-12-08T20:48:35.335Z,11.82
2022-12-08T20:51:02.706Z,10.60
2022-12-08T20:53:29.823Z,11.63
2022-12-08T20:55:58.915Z,11.35
2022-12-08T20:58:25.608Z,12.05
2022-12-08T21:00:52.411Z,11.07
2022-12-08T21:03:19.342Z,11.63
2022-12-08T21:05:52.156Z,11.85
2022-12-08T21:08:19.862Z,11.52
2022-12-08T21:10:53.470Z,10.45
2022-12-08T21:13:20.634Z,12.23
2022-12-08T21:15:49.936Z,12.15
2022-12-08T21:20:49.639Z,10.15
2022-12-08T21:23:21.113Z,11.25
2022-12-08T21:25:48.207Z,12.95
2022-12-08T21:28:17.262Z,12.45
2022-12-08T21:30:44.125Z,12.32
2022-12-08T21:33:18.496Z,12.98
2022-12-08T21:35:49.936Z,12.60
2022-12-08T21:38:16.816Z,12.85
2022-12-08T21:40:48.259Z,12.65
2022-12-08T21:43:18.091Z,14.15
2022-12-08T21:45:47.286Z,13.25
2022-12-08T21:48:16.499Z,13.45
2022-12-08T21:53:14.756Z,12.88
2022-12-08T21:55:41.484Z,13.07
2022-12-08T21:58:16.169Z,13.52
2022-12-08T22:00:45.285Z,13.32
2022-12-08T22:03:14.688Z,13.27
2022-12-08T22:05:45.018Z,14.57
2022-12-08T22:08:14.435Z,13.48
2022-12-08T22:10:41.058Z,13.20
2022-12-08T22:13:11.403Z,14.18
2022-12-08T22:15:38.024Z,14.43
2022-12-08T22:18:04.799Z,14.43
2022-12-08T22:20:42.313Z,14.68
2022-12-08T22:23:12.637Z,15.25
2022-12-08T22:25:39.452Z,14.13
2022-12-08T22:28:09.581Z,14.02
2022-12-08T22:31:13.000Z,15.38
2022-12-08T22:33:41.403Z,12.77
2022-12-08T22:36:14.804Z,13.52
2022-12-08T22:38:42.100Z,15.05
2022-12-08T22:41:11.134Z,14.18
2022-12-08T22:43:38.408Z,13.30
2022-12-08T22:46:19.404Z,14.43
2022-12-08T22:48:54.206Z,13.68
2022-12-08T22:51:21.269Z,14.85
2022-12-08T22:53:48.351Z,14.38
2022-12-08T22:56:19.209Z,13.95
2022-12-08T22:58:48.443Z,14.70
2022-12-08T23:01:27.799Z,14.85
2022-12-08T23:03:55.018Z,14.07
2022-12-08T23:06:26.050Z,16.38
2022-12-08T23:08:53.396Z,15.80
2022-12-08T23:11:22.177Z,15.48
2022-12-08T23:13:51.194Z,16.98
2022-12-08T23:16:18.193Z,17.23
2022-12-08T23:18:47.855Z,14.65
2022-12-08T23:21:20.383Z,15.65
2022-12-08T23:23:50.036Z,14.57
2022-12-08T23:26:27.518Z,16.00
2022-12-08T23:28:56.892Z,15.15
2022-12-08T23:33:58.358Z,14.75
2022-12-08T23:38:58.250Z,14.52
2022-12-08T23:41:27.574Z,15.68
2022-12-08T23:46:22.614Z,15.07
2022-12-08T23:48:52.295Z,17.00
2022-12-08T23:51:22.106Z,16.77
2022-12-08T23:53:51.078Z,16.65
2022-12-08T23:56:18.846Z,16.63
2022-12-08T23:58:45.942Z,17.98
